Great Falls (GTF/KGTF)

Map

Information

Location
Great Falls , MT
Local Time
05:48 / 5:48 am
GMT Time
12:48 / 12:48 pm
Gates
Unassigned
No FAA reported delays
METAR KGTF 161153Z 21015KT 10SM CLR M06/M13 A3010 RMK AO2 SLP248 T10561128 11039 21061 50001
TAF
  • No charts available